sensor_id;sensor_type;location;lat;lon;timestamp;pressure;altitude;pressure_sealevel;temperature;humidity
79586;BME280;69054;50.866;4.636;2023-08-06T09:59:58;100563.75;;;13.16;100.00
79586;BME280;69054;50.866;4.636;2023-08-06T10:02:26;100568.41;;;13.09;100.00
79586;BME280;69054;50.866;4.636;2023-08-06T10:04:52;100563.53;;;13.18;100.00
79586;BME280;69054;50.866;4.636;2023-08-06T10:07:21;100570.06;;;13.23;100.00
79586;BME280;69054;50.866;4.636;2023-08-06T10:09:47;100573.41;;;13.25;100.00
79586;BME280;69054;50.866;4.636;2023-08-06T10:12:13;100579.28;;;13.29;100.00
79586;BME280;69054;50.866;4.636;2023-08-06T10:14:40;100568.53;;;13.34;100.00
79586;BME280;69054;50.866;4.636;2023-08-06T10:17:07;100582.97;;;13.09;100.00
79586;BME280;69054;50.866;4.636;2023-08-06T10:19:34;100583.13;;;13.21;100.00
79586;BME280;69054;50.866;4.636;2023-08-06T10:22:12;100581.41;;;13.27;100.00
79586;BME280;69054;50.866;4.636;2023-08-06T10:24:51;100593.25;;;13.34;100.00
79586;BME280;69054;50.866;4.636;2023-08-06T10:27:33;100587.25;;;13.51;100.00
79586;BME280;69054;50.866;4.636;2023-08-06T10:30:21;100594.63;;;13.50;100.00
79586;BME280;69054;50.866;4.636;2023-08-06T10:32:51;100600.63;;;13.34;100.00
79586;BME280;69054;50.866;4.636;2023-08-06T10:35:41;100597.22;;;13.38;100.00
79586;BME280;69054;50.866;4.636;2023-08-06T10:38:15;100615.59;;;13.38;100.00
79586;BME280;69054;50.866;4.636;2023-08-06T10:41:02;100608.63;;;13.35;100.00
79586;BME280;69054;50.866;4.636;2023-08-06T10:43:35;100605.47;;;13.31;100.00
79586;BME280;69054;50.866;4.636;2023-08-06T10:46:04;100618.78;;;13.35;100.00
79586;BME280;69054;50.866;4.636;2023-08-06T10:48:36;100610.91;;;13.45;100.00
79586;BME280;69054;50.866;4.636;2023-08-06T10:51:02;100605.59;;;13.57;100.00
79586;BME280;69054;50.866;4.636;2023-08-06T10:53:29;100615.25;;;13.59;99.59
79586;BME280;69054;50.866;4.636;2023-08-06T10:55:54;100597.75;;;13.60;99.56
79586;BME280;69054;50.866;4.636;2023-08-06T10:58:20;100632.38;;;13.61;99.47
79586;BME280;69054;50.866;4.636;2023-08-06T11:00:46;100626.84;;;13.68;100.00
79586;BME280;69054;50.866;4.636;2023-08-06T11:03:11;100627.56;;;13.89;99.44
79586;BME280;69054;50.866;4.636;2023-08-06T11:05:37;100643.50;;;13.73;99.47
79586;BME280;69054;50.866;4.636;2023-08-06T11:08:03;100626.16;;;13.73;98.84
79586;BME280;69054;50.866;4.636;2023-08-06T11:10:28;100629.94;;;13.78;98.81
79586;BME280;69054;50.866;4.636;2023-08-06T11:12:54;100646.03;;;13.75;98.04
79586;BME280;69054;50.866;4.636;2023-08-06T11:15:22;100648.84;;;13.61;98.88
79586;BME280;69054;50.866;4.636;2023-08-06T11:17:47;100665.50;;;13.66;99.20
79586;BME280;69054;50.866;4.636;2023-08-06T11:20:13;100655.31;;;13.74;97.78
79586;BME280;69054;50.866;4.636;2023-08-06T11:22:39;100655.16;;;14.00;99.36
79586;BME280;69054;50.866;4.636;2023-08-06T11:25:06;100660.81;;;14.06;96.31
79586;BME280;69054;50.866;4.636;2023-08-06T11:27:32;100670.88;;;14.18;95.72
79586;BME280;69054;50.866;4.636;2023-08-06T11:29:57;100663.56;;;14.37;96.27
79586;BME280;69054;50.866;4.636;2023-08-06T11:32:23;100644.97;;;14.58;95.69
79586;BME280;69054;50.866;4.636;2023-08-06T11:34:48;100668.63;;;14.66;95.98
79586;BME280;69054;50.866;4.636;2023-08-06T11:37:13;100670.84;;;14.50;94.90
79586;BME280;69054;50.866;4.636;2023-08-06T11:39:46;100672.75;;;14.50;93.63
79586;BME280;69054;50.866;4.636;2023-08-06T11:42:12;100671.41;;;14.34;95.11
79586;BME280;69054;50.866;4.636;2023-08-06T11:44:37;100682.09;;;14.49;93.65
79586;BME280;69054;50.866;4.636;2023-08-06T11:47:04;100676.25;;;14.64;95.16
79586;BME280;69054;50.866;4.636;2023-08-06T11:49:39;100685.00;;;14.54;95.46
79586;BME280;69054;50.866;4.636;2023-08-06T11:54:36;100679.91;;;13.94;97.27
79586;BME280;69054;50.866;4.636;2023-08-06T11:57:03;100672.91;;;13.59;96.62
79586;BME280;69054;50.866;4.636;2023-08-06T11:59:30;100686.94;;;13.44;99.02
79586;BME280;69054;50.866;4.636;2023-08-06T12:01:55;100698.31;;;13.41;99.96
79586;BME280;69054;50.866;4.636;2023-08-06T12:04:20;100685.41;;;13.55;99.30
79586;BME280;69054;50.866;4.636;2023-08-06T12:06:46;100698.66;;;13.72;96.35
79586;BME280;69054;50.866;4.636;2023-08-06T12:09:11;100696.53;;;14.06;97.03
79586;BME280;69054;50.866;4.636;2023-08-06T12:11:37;100693.47;;;14.52;94.48
79586;BME280;69054;50.866;4.636;2023-08-06T12:14:02;100681.59;;;15.02;92.72
79586;BME280;69054;50.866;4.636;2023-08-06T12:16:28;100690.06;;;14.82;90.95
79586;BME280;69054;50.866;4.636;2023-08-06T12:18:53;100686.41;;;14.88;92.93
79586;BME280;69054;50.866;4.636;2023-08-06T12:21:18;100697.56;;;14.94;90.23
79586;BME280;69054;50.866;4.636;2023-08-06T12:23:44;100687.72;;;15.04;91.26
79586;BME280;69054;50.866;4.636;2023-08-06T12:26:09;100698.66;;;15.11;89.98
79586;BME280;69054;50.866;4.636;2023-08-06T12:28:35;100686.88;;;15.04;91.07
79586;BME280;69054;50.866;4.636;2023-08-06T12:31:00;100680.63;;;14.71;90.90
79586;BME280;69054;50.866;4.636;2023-08-06T12:33:26;100700.16;;;14.63;90.71
79586;BME280;69054;50.866;4.636;2023-08-06T12:35:51;100696.47;;;14.76;90.79
79586;BME280;69054;50.866;4.636;2023-08-06T12:38:20;100696.47;;;14.76;89.02
79586;BME280;69054;50.866;4.636;2023-08-06T12:40:45;100691.25;;;14.68;89.74
79586;BME280;69054;50.866;4.636;2023-08-06T12:43:11;100692.06;;;14.68;90.97
79586;BME280;69054;50.866;4.636;2023-08-06T12:45:36;100700.81;;;14.59;91.12
79586;BME280;69054;50.866;4.636;2023-08-06T12:48:02;100711.88;;;14.52;92.35
79586;BME280;69054;50.866;4.636;2023-08-06T12:50:28;100707.97;;;14.34;90.62
79586;BME280;69054;50.866;4.636;2023-08-06T12:52:53;100712.66;;;14.27;93.77
79586;BME280;69054;50.866;4.636;2023-08-06T12:55:19;100724.38;;;14.16;93.38
79586;BME280;69054;50.866;4.636;2023-08-06T12:57:44;100725.19;;;14.23;93.28
79586;BME280;69054;50.866;4.636;2023-08-06T13:00:10;100711.63;;;14.28;92.26
79586;BME280;69054;50.866;4.636;2023-08-06T13:02:35;100729.44;;;14.19;92.94
79586;BME280;69054;50.866;4.636;2023-08-06T13:05:01;100739.53;;;14.25;94.92
79586;BME280;69054;50.866;4.636;2023-08-06T13:07:30;100742.72;;;14.22;95.90
79586;BME280;69054;50.866;4.636;2023-08-06T13:09:56;100750.06;;;13.96;93.89
79586;BME280;69054;50.866;4.636;2023-08-06T13:12:21;100748.06;;;13.72;96.29
79586;BME280;69054;50.866;4.636;2023-08-06T13:14:48;100739.84;;;13.65;98.40
79586;BME280;69054;50.866;4.636;2023-08-06T13:17:13;100754.50;;;13.39;98.47
79586;BME280;69054;50.866;4.636;2023-08-06T13:19:39;100749.03;;;13.39;100.00
79586;BME280;69054;50.866;4.636;2023-08-06T13:22:06;100756.59;;;13.30;100.00
79586;BME280;69054;50.866;4.636;2023-08-06T13:24:33;100749.44;;;13.36;100.00
79586;BME280;69054;50.866;4.636;2023-08-06T13:27:00;100753.97;;;13.69;97.55
79586;BME280;69054;50.866;4.636;2023-08-06T13:29:26;100768.34;;;13.71;98.70
79586;BME280;69054;50.866;4.636;2023-08-06T13:31:52;100772.56;;;13.66;98.73
79586;BME280;69054;50.866;4.636;2023-08-06T13:34:17;100773.88;;;13.57;99.60
79586;BME280;69054;50.866;4.636;2023-08-06T13:36:43;100790.97;;;13.59;96.12
79586;BME280;69054;50.866;4.636;2023-08-06T13:39:08;100790.28;;;13.77;95.17
79586;BME280;69054;50.866;4.636;2023-08-06T13:41:34;100783.91;;;13.83;93.96
79586;BME280;69054;50.866;4.636;2023-08-06T13:43:59;100785.47;;;13.66;93.94
79586;BME280;69054;50.866;4.636;2023-08-06T13:46:25;100781.91;;;13.59;93.85
79586;BME280;69054;50.866;4.636;2023-08-06T13:48:50;100787.00;;;13.42;93.84
79586;BME280;69054;50.866;4.636;2023-08-06T13:51:16;100807.47;;;13.26;94.78
79586;BME280;69054;50.866;4.636;2023-08-06T13:53:42;100799.25;;;13.12;96.93
79586;BME280;69054;50.866;4.636;2023-08-06T13:56:09;100799.25;;;13.06;97.50
79586;BME280;69054;50.866;4.636;2023-08-06T13:58:38;100815.94;;;13.04;99.04
79586;BME280;69054;50.866;4.636;2023-08-06T14:01:03;100803.47;;;13.02;97.80
79586;BME280;69054;50.866;4.636;2023-08-06T14:03:29;100816.16;;;12.96;99.94
79586;BME280;69054;50.866;4.636;2023-08-06T14:05:54;100811.94;;;12.93;99.51
79586;BME280;69054;50.866;4.636;2023-08-06T14:08:24;100814.44;;;12.82;97.51
79586;BME280;69054;50.866;4.636;2023-08-06T14:10:50;100826.66;;;12.79;99.69
79586;BME280;69054;50.866;4.636;2023-08-06T14:13:16;100830.06;;;12.81;99.23
79586;BME280;69054;50.866;4.636;2023-08-06T14:15:42;100833.44;;;12.96;99.82
79586;BME280;69054;50.866;4.636;2023-08-06T14:18:20;100827.31;;;13.01;98.08
79586;BME280;69054;50.866;4.636;2023-08-06T14:20:46;100837.88;;;13.11;99.78
79586;BME280;69054;50.866;4.636;2023-08-06T14:23:11;100835.53;;;13.08;98.08
79586;BME280;69054;50.866;4.636;2023-08-06T14:25:37;100831.97;;;13.07;99.66
79586;BME280;69054;50.866;4.636;2023-08-06T14:28:03;100859.00;;;13.04;98.17
79586;BME280;69054;50.866;4.636;2023-08-06T14:30:29;100853.06;;;13.00;99.13
79586;BME280;69054;50.866;4.636;2023-08-06T14:32:55;100857.50;;;13.14;100.00
79586;BME280;69054;50.866;4.636;2023-08-06T14:35:20;100856.03;;;13.12;99.18
79586;BME280;69054;50.866;4.636;2023-08-06T14:37:46;100868.28;;;13.29;98.59
79586;BME280;69054;50.866;4.636;2023-08-06T14:40:11;100867.88;;;13.39;99.05
79586;BME280;69054;50.866;4.636;2023-08-06T14:42:37;100862.19;;;13.34;97.51
79586;BME280;69054;50.866;4.636;2023-08-06T14:45:03;100866.16;;;13.25;98.18
79586;BME280;69054;50.866;4.636;2023-08-06T14:47:29;100869.56;;;13.34;98.34
79586;BME280;69054;50.866;4.636;2023-08-06T14:49:54;100883.03;;;13.28;98.18
79586;BME280;69054;50.866;4.636;2023-08-06T14:52:19;100890.22;;;13.29;99.27
79586;BME280;69054;50.866;4.636;2023-08-06T14:54:45;100892.31;;;13.27;100.00
79586;BME280;69054;50.866;4.636;2023-08-06T14:57:10;100897.59;;;13.16;99.74
79586;BME280;69054;50.866;4.636;2023-08-06T14:59:36;100907.31;;;13.11;100.00
79586;BME280;69054;50.866;4.636;2023-08-06T15:02:01;100907.09;;;13.00;100.00
79586;BME280;69054;50.866;4.636;2023-08-06T15:04:27;100900.53;;;12.94;100.00
79586;BME280;69054;50.866;4.636;2023-08-06T15:06:53;100913.63;;;12.92;100.00
79586;BME280;69054;50.866;4.636;2023-08-06T15:09:19;100921.00;;;12.91;100.00
79586;BME280;69054;50.866;4.636;2023-08-06T15:11:47;100914.91;;;12.96;100.00
79586;BME280;69054;50.866;4.636;2023-08-06T15:14:12;100927.78;;;13.09;100.00
79586;BME280;69054;50.866;4.636;2023-08-06T15:16:39;100932.00;;;13.18;99.21
79586;BME280;69054;50.866;4.636;2023-08-06T15:19:05;100937.06;;;13.21;100.00
79586;BME280;69054;50.866;4.636;2023-08-06T15:21:30;100948.28;;;13.26;99.98
79586;BME280;69054;50.866;4.636;2023-08-06T15:23:56;100947.63;;;13.24;98.93
79586;BME280;69054;50.866;4.636;2023-08-06T15:26:21;100948.50;;;13.25;100.00
79586;BME280;69054;50.866;4.636;2023-08-06T15:28:46;100961.81;;;13.41;99.08
79586;BME280;69054;50.866;4.636;2023-08-06T15:31:12;100950.00;;;13.47;97.81
79586;BME280;69054;50.866;4.636;2023-08-06T15:33:38;100951.88;;;13.47;97.28
79586;BME280;69054;50.866;4.636;2023-08-06T15:36:03;100955.28;;;13.49;96.00
79586;BME280;69054;50.866;4.636;2023-08-06T15:38:29;100958.00;;;13.62;98.27
79586;BME280;69054;50.866;4.636;2023-08-06T15:40:54;100958.66;;;13.71;97.10
79586;BME280;69054;50.866;4.636;2023-08-06T15:43:20;100967.09;;;13.70;95.01
79586;BME280;69054;50.866;4.636;2023-08-06T15:45:45;100959.69;;;13.77;94.93
79586;BME280;69054;50.866;4.636;2023-08-06T15:48:11;100965.63;;;13.74;94.85
79586;BME280;69054;50.866;4.636;2023-08-06T15:50:37;100955.69;;;13.73;94.69
79586;BME280;69054;50.866;4.636;2023-08-06T15:53:03;100967.31;;;13.68;92.86
79586;BME280;69054;50.866;4.636;2023-08-06T15:55:29;100966.03;;;13.57;91.37
79586;BME280;69054;50.866;4.636;2023-08-06T15:57:54;100966.69;;;13.66;93.46
79586;BME280;69054;50.866;4.636;2023-08-06T16:00:19;100968.34;;;13.94;94.70
79586;BME280;69054;50.866;4.636;2023-08-06T16:02:45;100958.81;;;14.03;92.34
79586;BME280;69054;50.866;4.636;2023-08-06T16:05:11;100972.16;;;13.99;92.01
79586;BME280;69054;50.866;4.636;2023-08-06T16:07:36;100981.19;;;14.13;91.12
79586;BME280;69054;50.866;4.636;2023-08-06T16:10:02;100973.75;;;14.27;89.89
79586;BME280;69054;50.866;4.636;2023-08-06T16:12:28;100981.56;;;14.30;89.95
79586;BME280;69054;50.866;4.636;2023-08-06T16:14:54;100968.47;;;14.32;88.17
79586;BME280;69054;50.866;4.636;2023-08-06T16:17:19;100975.59;;;14.53;89.21
79586;BME280;69054;50.866;4.636;2023-08-06T16:19:44;100979.59;;;14.64;89.23
79586;BME280;69054;50.866;4.636;2023-08-06T16:22:10;100981.66;;;14.76;86.69
79586;BME280;69054;50.866;4.636;2023-08-06T16:24:35;100987.75;;;14.84;86.38
79586;BME280;69054;50.866;4.636;2023-08-06T16:27:01;100970.03;;;14.73;85.55
79586;BME280;69054;50.866;4.636;2023-08-06T16:29:26;100999.44;;;14.73;89.43
79586;BME280;69054;50.866;4.636;2023-08-06T16:31:52;100991.63;;;14.70;88.90
79586;BME280;69054;50.866;4.636;2023-08-06T16:34:18;100994.66;;;14.42;86.66
79586;BME280;69054;50.866;4.636;2023-08-06T16:36:43;100985.16;;;14.37;87.02
79586;BME280;69054;50.866;4.636;2023-08-06T16:39:09;100991.69;;;14.36;88.00
79586;BME280;69054;50.866;4.636;2023-08-06T16:41:34;101002.03;;;14.48;89.66
79586;BME280;69054;50.866;4.636;2023-08-06T16:43:59;100990.34;;;14.59;87.32
79586;BME280;69054;50.866;4.636;2023-08-06T16:46:25;100984.44;;;14.69;84.15
79586;BME280;69054;50.866;4.636;2023-08-06T16:48:50;101004.97;;;14.60;85.88
79586;BME280;69054;50.866;4.636;2023-08-06T16:51:16;101008.78;;;14.65;85.72
79586;BME280;69054;50.866;4.636;2023-08-06T16:53:45;101008.50;;;14.87;85.26
79586;BME280;69054;50.866;4.636;2023-08-06T16:56:11;101010.81;;;14.83;84.57
79586;BME280;69054;50.866;4.636;2023-08-06T16:58:37;101020.81;;;14.78;87.04
79586;BME280;69054;50.866;4.636;2023-08-06T17:01:02;101010.47;;;14.53;81.41
79586;BME280;69054;50.866;4.636;2023-08-06T17:03:31;101022.81;;;14.30;82.01
79586;BME280;69054;50.866;4.636;2023-08-06T17:05:58;101022.19;;;14.22;81.87
79586;BME280;69054;50.866;4.636;2023-08-06T17:08:24;101040.81;;;14.26;83.07
79586;BME280;69054;50.866;4.636;2023-08-06T17:10:49;101032.56;;;14.26;82.29
79586;BME280;69054;50.866;4.636;2023-08-06T17:13:17;101040.38;;;14.23;84.53
79586;BME280;69054;50.866;4.636;2023-08-06T17:15:42;101041.41;;;14.22;82.41
79586;BME280;69054;50.866;4.636;2023-08-06T17:18:08;101044.59;;;14.18;82.71
79586;BME280;69054;50.866;4.636;2023-08-06T17:20:35;101047.97;;;14.14;82.65
79586;BME280;69054;50.866;4.636;2023-08-06T17:23:00;101056.03;;;14.02;85.63
79586;BME280;69054;50.866;4.636;2023-08-06T17:25:25;101046.75;;;13.96;85.34
79586;BME280;69054;50.866;4.636;2023-08-06T17:27:51;101050.56;;;13.89;86.74
79586;BME280;69054;50.866;4.636;2023-08-06T17:30:16;101054.97;;;13.83;84.24
79586;BME280;69054;50.866;4.636;2023-08-06T17:32:42;101053.94;;;13.97;83.09
79586;BME280;69054;50.866;4.636;2023-08-06T17:35:08;101063.00;;;14.05;82.43
79586;BME280;69054;50.866;4.636;2023-08-06T17:37:34;101072.72;;;14.14;80.87
79586;BME280;69054;50.866;4.636;2023-08-06T17:39:59;101076.53;;;14.06;82.36
79586;BME280;69054;50.866;4.636;2023-08-06T17:42:24;101075.06;;;14.04;82.62
79586;BME280;69054;50.866;4.636;2023-08-06T17:44:50;101078.88;;;14.02;82.76
79586;BME280;69054;50.866;4.636;2023-08-06T17:47:15;101084.13;;;14.11;81.05
79586;BME280;69054;50.866;4.636;2023-08-06T17:49:41;101084.97;;;14.05;79.52
79586;BME280;69054;50.866;4.636;2023-08-06T17:52:06;101079.91;;;13.95;82.05
79586;BME280;69054;50.866;4.636;2023-08-06T17:54:32;101094.28;;;13.90;80.75
79586;BME280;69054;50.866;4.636;2023-08-06T17:56:57;101093.66;;;13.95;80.41
79586;BME280;69054;50.866;4.636;2023-08-06T17:59:23;101098.28;;;13.94;81.36
79586;BME280;69054;50.866;4.636;2023-08-06T18:01:48;101097.88;;;13.84;81.56
79586;BME280;69054;50.866;4.636;2023-08-06T18:04:13;101100.63;;;13.84;80.83
79586;BME280;69054;50.866;4.636;2023-08-06T18:06:39;101101.66;;;13.83;81.99
79586;BME280;69054;50.866;4.636;2023-08-06T18:09:05;101100.38;;;13.79;81.54
79586;BME280;69054;50.866;4.636;2023-08-06T18:11:30;101098.06;;;13.69;82.71
79586;BME280;69054;50.866;4.636;2023-08-06T18:13:55;101099.13;;;13.68;82.21
79586;BME280;69054;50.866;4.636;2023-08-06T18:16:21;101099.53;;;13.58;80.89
79586;BME280;69054;50.866;4.636;2023-08-06T18:18:46;101102.06;;;13.66;77.78
79586;BME280;69054;50.866;4.636;2023-08-06T18:21:12;101106.69;;;13.59;79.92
79586;BME280;69054;50.866;4.636;2023-08-06T18:23:38;101102.91;;;13.54;79.14
79586;BME280;69054;50.866;4.636;2023-08-06T18:26:04;101106.69;;;13.46;80.62
79586;BME280;69054;50.866;4.636;2023-08-06T18:28:29;101105.59;;;13.40;79.22
79586;BME280;69054;50.866;4.636;2023-08-06T18:30:55;101119.75;;;13.37;80.59
79586;BME280;69054;50.866;4.636;2023-08-06T18:33:21;101107.44;;;13.26;80.58
79586;BME280;69054;50.866;4.636;2023-08-06T18:35:47;101107.78;;;13.10;81.09
79586;BME280;69054;50.866;4.636;2023-08-06T18:38:12;101106.50;;;13.06;82.09
79586;BME280;69054;50.866;4.636;2023-08-06T18:40:38;101111.97;;;13.06;82.16
79586;BME280;69054;50.866;4.636;2023-08-06T18:43:03;101115.72;;;12.91;84.36
79586;BME280;69054;50.866;4.636;2023-08-06T18:45:29;101116.22;;;13.08;82.62
79586;BME280;69054;50.866;4.636;2023-08-06T18:47:58;101120.03;;;13.14;81.24
79586;BME280;69054;50.866;4.636;2023-08-06T18:50:24;101117.06;;;13.09;81.65
79586;BME280;69054;50.866;4.636;2023-08-06T18:52:49;101124.59;;;12.93;82.56
79586;BME280;69054;50.866;4.636;2023-08-06T18:55:15;101129.19;;;12.86;83.53
79586;BME280;69054;50.866;4.636;2023-08-06T18:57:40;101136.25;;;12.67;84.84
79586;BME280;69054;50.866;4.636;2023-08-06T19:00:06;101135.50;;;12.52;84.61
79586;BME280;69054;50.866;4.636;2023-08-06T19:02:32;101132.44;;;12.62;84.22
79586;BME280;69054;50.866;4.636;2023-08-06T19:04:57;101136.63;;;12.64;83.21
79586;BME280;69054;50.866;4.636;2023-08-06T19:07:24;101135.81;;;12.64;83.18
79586;BME280;69054;50.866;4.636;2023-08-06T19:09:49;101137.91;;;12.62;82.12
79586;BME280;69054;50.866;4.636;2023-08-06T19:12:15;101142.88;;;12.51;83.45
79586;BME280;69054;50.866;4.636;2023-08-06T19:14:43;101142.28;;;12.56;83.47
79586;BME280;69054;50.866;4.636;2023-08-06T19:17:09;101143.69;;;12.45;84.00
79586;BME280;69054;50.866;4.636;2023-08-06T19:19:34;101147.53;;;12.51;83.46
79586;BME280;69054;50.866;4.636;2023-08-06T19:21:59;101141.25;;;12.57;83.48
79586;BME280;69054;50.866;4.636;2023-08-06T19:24:25;101150.38;;;12.36;85.35
79586;BME280;69054;50.866;4.636;2023-08-06T19:26:50;101157.03;;;12.27;86.65
79586;BME280;69054;50.866;4.636;2023-08-06T19:29:16;101154.59;;;12.10;87.76
79586;BME280;69054;50.866;4.636;2023-08-06T19:31:41;101157.31;;;12.10;86.92
79586;BME280;69054;50.866;4.636;2023-08-06T19:34:08;101151.31;;;12.00;87.65
79586;BME280;69054;50.866;4.636;2023-08-06T19:36:33;101154.78;;;12.09;87.76
79586;BME280;69054;50.866;4.636;2023-08-06T19:38:59;101149.75;;;12.12;87.21
79586;BME280;69054;50.866;4.636;2023-08-06T19:41:24;101161.25;;;12.29;85.92
79586;BME280;69054;50.866;4.636;2023-08-06T19:43:49;101161.09;;;12.09;87.80
79586;BME280;69054;50.866;4.636;2023-08-06T19:46:15;101154.06;;;12.00;88.36
79586;BME280;69054;50.866;4.636;2023-08-06T19:48:40;101159.91;;;11.75;88.60
79586;BME280;69054;50.866;4.636;2023-08-06T19:51:06;101154.91;;;12.00;87.30
79586;BME280;69054;50.866;4.636;2023-08-06T19:53:33;101163.28;;;11.77;89.02
79586;BME280;69054;50.866;4.636;2023-08-06T19:56:03;101165.81;;;11.79;88.97
79586;BME280;69054;50.866;4.636;2023-08-06T19:58:30;101163.81;;;11.66;90.27
79586;BME280;69054;50.866;4.636;2023-08-06T20:00:57;101162.13;;;11.50;91.22
79586;BME280;69054;50.866;4.636;2023-08-06T20:03:25;101161.31;;;11.34;91.70
79586;BME280;69054;50.866;4.636;2023-08-06T20:05:51;101161.09;;;11.14;93.46
79586;BME280;69054;50.866;4.636;2023-08-06T20:08:17;101167.84;;;11.18;93.01
79586;BME280;69054;50.866;4.636;2023-08-06T20:10:47;101164.91;;;11.35;91.00
79586;BME280;69054;50.866;4.636;2023-08-06T20:13:15;101163.59;;;11.31;91.08
79586;BME280;69054;50.866;4.636;2023-08-06T20:15:42;101162.47;;;11.25;91.37
79586;BME280;69054;50.866;4.636;2023-08-06T20:18:07;101171.44;;;11.19;92.01
79586;BME280;69054;50.866;4.636;2023-08-06T20:20:38;101169.66;;;11.11;91.64
79586;BME280;69054;50.866;4.636;2023-08-06T20:23:04;101169.19;;;11.08;91.32
79586;BME280;69054;50.866;4.636;2023-08-06T20:25:29;101161.28;;;10.98;91.94
79586;BME280;69054;50.866;4.636;2023-08-06T20:27:56;101158.81;;;11.03;91.89
79586;BME280;69054;50.866;4.636;2023-08-06T20:30:22;101170.97;;;11.00;91.14
79586;BME280;69054;50.866;4.636;2023-08-06T20:32:47;101164.59;;;10.93;91.34
79586;BME280;69054;50.866;4.636;2023-08-06T20:35:13;101169.19;;;10.93;91.46
79586;BME280;69054;50.866;4.636;2023-08-06T20:37:38;101169.38;;;10.91;91.92
79586;BME280;69054;50.866;4.636;2023-08-06T20:40:04;101169.09;;;11.01;92.13
79586;BME280;69054;50.866;4.636;2023-08-06T20:42:29;101177.19;;;11.09;91.14
79586;BME280;69054;50.866;4.636;2023-08-06T20:44:55;101171.72;;;11.09;91.58
79586;BME280;69054;50.866;4.636;2023-08-06T20:47:20;101177.38;;;11.08;91.42
79586;BME280;69054;50.866;4.636;2023-08-06T20:49:46;101179.09;;;11.09;92.28
79586;BME280;69054;50.866;4.636;2023-08-06T20:52:11;101171.53;;;10.96;92.74
79586;BME280;69054;50.866;4.636;2023-08-06T20:54:36;101176.09;;;10.89;93.10
79586;BME280;69054;50.866;4.636;2023-08-06T20:57:02;101187.47;;;10.77;93.57
79586;BME280;69054;50.866;4.636;2023-08-06T20:59:28;101188.50;;;10.61;94.84
79586;BME280;69054;50.866;4.636;2023-08-06T21:01:56;101196.16;;;10.66;94.83
79586;BME280;69054;50.866;4.636;2023-08-06T21:04:22;101190.59;;;10.74;94.14
79586;BME280;69054;50.866;4.636;2023-08-06T21:06:48;101185.88;;;10.83;93.91
79586;BME280;69054;50.866;4.636;2023-08-06T21:09:13;101183.22;;;10.75;94.96
79586;BME280;69054;50.866;4.636;2023-08-06T21:11:39;101182.09;;;10.69;95.45
79586;BME280;69054;50.866;4.636;2023-08-06T21:14:04;101179.19;;;10.71;95.68
79586;BME280;69054;50.866;4.636;2023-08-06T21:16:29;101185.47;;;10.56;95.60
79586;BME280;69054;50.866;4.636;2023-08-06T21:18:55;101189.91;;;10.57;96.62
79586;BME280;69054;50.866;4.636;2023-08-06T21:21:20;101197.63;;;10.69;96.00
79586;BME280;69054;50.866;4.636;2023-08-06T21:23:46;101190.09;;;10.56;96.71
79586;BME280;69054;50.866;4.636;2023-08-06T21:26:11;101191.88;;;10.48;96.72
79586;BME280;69054;50.866;4.636;2023-08-06T21:28:37;101186.50;;;10.40;98.09
79586;BME280;69054;50.866;4.636;2023-08-06T21:31:11;101194.63;;;10.63;96.72
79586;BME280;69054;50.866;4.636;2023-08-06T21:33:38;101188.13;;;10.64;95.86
79586;BME280;69054;50.866;4.636;2023-08-06T21:36:05;101197.28;;;10.57;96.56
79586;BME280;69054;50.866;4.636;2023-08-06T21:38:32;101203.38;;;10.59;96.77
79586;BME280;69054;50.866;4.636;2023-08-06T21:41:12;101203.66;;;10.64;96.72
79586;BME280;69054;50.866;4.636;2023-08-06T21:43:42;101199.03;;;10.50;97.79
79586;BME280;69054;50.866;4.636;2023-08-06T21:46:09;101195.72;;;10.39;97.80
79586;BME280;69054;50.866;4.636;2023-08-06T21:48:36;101197.03;;;10.43;98.02
79586;BME280;69054;50.866;4.636;2023-08-06T21:51:07;101192.19;;;10.54;97.37
79586;BME280;69054;50.866;4.636;2023-08-06T21:53:35;101192.19;;;10.54;97.27
79586;BME280;69054;50.866;4.636;2023-08-06T21:56:02;101196.03;;;10.59;96.98
79586;BME280;69054;50.866;4.636;2023-08-06T21:58:44;101194.31;;;10.43;98.01
79586;BME280;69054;50.866;4.636;2023-08-06T22:01:10;101198.44;;;10.39;98.80
79586;BME280;69054;50.866;4.636;2023-08-06T22:03:37;101198.44;;;10.39;98.62
79586;BME280;69054;50.866;4.636;2023-08-06T22:06:03;101200.03;;;10.34;99.00
79586;BME280;69054;50.866;4.636;2023-08-06T22:08:29;101201.00;;;10.18;99.95
79586;BME280;69054;50.866;4.636;2023-08-06T22:10:55;101196.13;;;10.28;100.00
79586;BME280;69054;50.866;4.636;2023-08-06T22:13:25;101201.81;;;10.18;100.00
79586;BME280;69054;50.866;4.636;2023-08-06T22:15:51;101208.03;;;10.35;99.60
79586;BME280;69054;50.866;4.636;2023-08-06T22:18:16;101201.31;;;10.61;97.75
79586;BME280;69054;50.866;4.636;2023-08-06T22:20:42;101201.63;;;10.66;97.41
79586;BME280;69054;50.866;4.636;2023-08-06T22:23:09;101202.91;;;10.55;98.00
79586;BME280;69054;50.866;4.636;2023-08-06T22:25:34;101206.56;;;10.47;98.18
79586;BME280;69054;50.866;4.636;2023-08-06T22:28:00;101209.28;;;10.47;98.20
79586;BME280;69054;50.866;4.636;2023-08-06T22:30:25;101205.06;;;10.45;97.83
79586;BME280;69054;50.866;4.636;2023-08-06T22:32:50;101203.53;;;10.42;98.57
79586;BME280;69054;50.866;4.636;2023-08-06T22:35:16;101200.72;;;10.51;97.97
79586;BME280;69054;50.866;4.636;2023-08-06T22:37:45;101203.47;;;10.65;97.48
79586;BME280;69054;50.866;4.636;2023-08-06T22:40:11;101194.06;;;10.68;96.44
79586;BME280;69054;50.866;4.636;2023-08-06T22:42:37;101194.25;;;10.67;96.87
79586;BME280;69054;50.866;4.636;2023-08-06T22:45:07;101195.09;;;10.67;96.52